sensor_id;sensor_type;location;lat;lon;timestamp;temperature;humidity
35541;DHT22;21650;48.840;9.162;2024-01-30T00:01:25;2.00;99.90
35541;DHT22;21650;48.840;9.162;2024-01-30T00:03:51;2.00;99.90
35541;DHT22;21650;48.840;9.162;2024-01-30T00:06:20;2.00;99.90
35541;DHT22;21650;48.840;9.162;2024-01-30T00:08:49;2.10;99.90
35541;DHT22;21650;48.840;9.162;2024-01-30T00:11:15;2.00;99.90
35541;DHT22;21650;48.840;9.162;2024-01-30T00:13:41;2.00;99.90
35541;DHT22;21650;48.840;9.162;2024-01-30T00:16:07;2.00;99.90
35541;DHT22;21650;48.840;9.162;2024-01-30T00:18:34;2.00;99.90
35541;DHT22;21650;48.840;9.162;2024-01-30T00:21:00;2.00;99.90
35541;DHT22;21650;48.840;9.162;2024-01-30T00:23:25;2.00;99.90
35541;DHT22;21650;48.840;9.162;2024-01-30T00:25:51;2.00;99.90
35541;DHT22;21650;48.840;9.162;2024-01-30T00:28:17;2.00;99.90
35541;DHT22;21650;48.840;9.162;2024-01-30T00:30:42;1.90;99.90
35541;DHT22;21650;48.840;9.162;2024-01-30T00:33:09;2.00;99.90
35541;DHT22;21650;48.840;9.162;2024-01-30T00:35:34;2.00;99.90
35541;DHT22;21650;48.840;9.162;2024-01-30T00:38:00;2.00;99.90
35541;DHT22;21650;48.840;9.162;2024-01-30T00:40:26;2.00;99.90
35541;DHT22;21650;48.840;9.162;2024-01-30T00:42:52;2.00;99.90
35541;DHT22;21650;48.840;9.162;2024-01-30T00:45:17;2.00;99.90
35541;DHT22;21650;48.840;9.162;2024-01-30T00:47:43;2.00;99.90
35541;DHT22;21650;48.840;9.162;2024-01-30T00:50:09;2.00;99.90
35541;DHT22;21650;48.840;9.162;2024-01-30T00:52:35;2.00;99.90
35541;DHT22;21650;48.840;9.162;2024-01-30T00:55:01;2.00;99.90
35541;DHT22;21650;48.840;9.162;2024-01-30T00:57:28;2.10;99.90
35541;DHT22;21650;48.840;9.162;2024-01-30T00:59:53;2.10;99.90
35541;DHT22;21650;48.840;9.162;2024-01-30T01:02:19;2.10;99.90
35541;DHT22;21650;48.840;9.162;2024-01-30T01:04:45;2.10;99.90
35541;DHT22;21650;48.840;9.162;2024-01-30T01:07:11;2.10;99.90
35541;DHT22;21650;48.840;9.162;2024-01-30T01:09:37;2.10;99.90
35541;DHT22;21650;48.840;9.162;2024-01-30T01:12:03;2.10;99.90
35541;DHT22;21650;48.840;9.162;2024-01-30T01:14:29;2.10;99.90
35541;DHT22;21650;48.840;9.162;2024-01-30T01:16:54;2.10;99.90
35541;DHT22;21650;48.840;9.162;2024-01-30T01:19:20;2.00;99.90
35541;DHT22;21650;48.840;9.162;2024-01-30T01:21:46;2.00;99.90
35541;DHT22;21650;48.840;9.162;2024-01-30T01:24:11;2.00;99.90
35541;DHT22;21650;48.840;9.162;2024-01-30T01:26:37;2.00;99.90
35541;DHT22;21650;48.840;9.162;2024-01-30T01:29:02;2.00;99.90
35541;DHT22;21650;48.840;9.162;2024-01-30T01:31:38;2.00;99.90
35541;DHT22;21650;48.840;9.162;2024-01-30T01:34:12;2.00;99.90
35541;DHT22;21650;48.840;9.162;2024-01-30T01:36:39;2.00;99.90
35541;DHT22;21650;48.840;9.162;2024-01-30T01:39:05;1.90;99.90
35541;DHT22;21650;48.840;9.162;2024-01-30T01:41:31;1.90;99.90
35541;DHT22;21650;48.840;9.162;2024-01-30T01:43:57;1.90;99.90
35541;DHT22;21650;48.840;9.162;2024-01-30T01:46:23;1.90;99.90
35541;DHT22;21650;48.840;9.162;2024-01-30T01:48:49;1.90;99.90
35541;DHT22;21650;48.840;9.162;2024-01-30T01:51:15;1.90;99.90
35541;DHT22;21650;48.840;9.162;2024-01-30T01:53:42;1.90;99.90
35541;DHT22;21650;48.840;9.162;2024-01-30T01:56:08;1.80;99.90
35541;DHT22;21650;48.840;9.162;2024-01-30T01:58:34;1.80;99.90
35541;DHT22;21650;48.840;9.162;2024-01-30T02:01:01;1.80;99.90
35541;DHT22;21650;48.840;9.162;2024-01-30T02:03:27;1.80;99.90
35541;DHT22;21650;48.840;9.162;2024-01-30T02:05:53;1.80;99.90
35541;DHT22;21650;48.840;9.162;2024-01-30T02:08:20;1.80;99.90
35541;DHT22;21650;48.840;9.162;2024-01-30T02:10:46;1.80;99.90
35541;DHT22;21650;48.840;9.162;2024-01-30T02:13:11;1.80;99.90
35541;DHT22;21650;48.840;9.162;2024-01-30T02:15:37;1.80;99.90
35541;DHT22;21650;48.840;9.162;2024-01-30T02:18:02;1.80;99.90
35541;DHT22;21650;48.840;9.162;2024-01-30T02:20:30;1.70;99.90
35541;DHT22;21650;48.840;9.162;2024-01-30T02:22:59;1.70;99.90
35541;DHT22;21650;48.840;9.162;2024-01-30T02:25:38;1.70;99.90
35541;DHT22;21650;48.840;9.162;2024-01-30T02:28:04;1.70;99.90
35541;DHT22;21650;48.840;9.162;2024-01-30T02:30:30;1.70;99.90
35541;DHT22;21650;48.840;9.162;2024-01-30T02:32:55;1.70;99.90
35541;DHT22;21650;48.840;9.162;2024-01-30T02:35:21;1.70;99.90
35541;DHT22;21650;48.840;9.162;2024-01-30T02:37:46;1.70;99.90
35541;DHT22;21650;48.840;9.162;2024-01-30T02:40:12;1.70;99.90
35541;DHT22;21650;48.840;9.162;2024-01-30T02:42:38;1.60;99.90
35541;DHT22;21650;48.840;9.162;2024-01-30T02:45:04;1.60;99.90
35541;DHT22;21650;48.840;9.162;2024-01-30T02:47:30;1.50;99.90
35541;DHT22;21650;48.840;9.162;2024-01-30T02:49:56;1.50;99.90
35541;DHT22;21650;48.840;9.162;2024-01-30T02:52:21;1.50;99.90
35541;DHT22;21650;48.840;9.162;2024-01-30T02:54:47;1.50;99.90
35541;DHT22;21650;48.840;9.162;2024-01-30T02:57:12;1.50;99.90
35541;DHT22;21650;48.840;9.162;2024-01-30T02:59:38;1.50;99.90
35541;DHT22;21650;48.840;9.162;2024-01-30T03:02:04;1.50;99.90
35541;DHT22;21650;48.840;9.162;2024-01-30T03:04:29;1.40;99.90
35541;DHT22;21650;48.840;9.162;2024-01-30T03:06:55;1.50;99.90
35541;DHT22;21650;48.840;9.162;2024-01-30T03:09:21;1.50;99.90
35541;DHT22;21650;48.840;9.162;2024-01-30T03:11:47;1.40;99.90
35541;DHT22;21650;48.840;9.162;2024-01-30T03:14:13;1.40;99.90
35541;DHT22;21650;48.840;9.162;2024-01-30T03:16:38;1.40;99.90
35541;DHT22;21650;48.840;9.162;2024-01-30T03:19:06;1.50;99.90
35541;DHT22;21650;48.840;9.162;2024-01-30T03:21:33;1.40;99.90
35541;DHT22;21650;48.840;9.162;2024-01-30T03:23:58;1.40;99.90
35541;DHT22;21650;48.840;9.162;2024-01-30T03:26:25;1.40;99.90
35541;DHT22;21650;48.840;9.162;2024-01-30T03:28:50;1.40;99.90
35541;DHT22;21650;48.840;9.162;2024-01-30T03:31:16;1.30;99.90
35541;DHT22;21650;48.840;9.162;2024-01-30T03:33:42;1.30;99.90
35541;DHT22;21650;48.840;9.162;2024-01-30T03:36:09;1.30;99.90
35541;DHT22;21650;48.840;9.162;2024-01-30T03:38:35;1.30;99.90
35541;DHT22;21650;48.840;9.162;2024-01-30T03:41:00;1.30;99.90
35541;DHT22;21650;48.840;9.162;2024-01-30T03:43:26;1.30;99.90
35541;DHT22;21650;48.840;9.162;2024-01-30T03:45:52;1.20;99.90
35541;DHT22;21650;48.840;9.162;2024-01-30T03:48:18;1.20;99.90
35541;DHT22;21650;48.840;9.162;2024-01-30T03:50:43;1.20;99.90
35541;DHT22;21650;48.840;9.162;2024-01-30T03:53:09;1.20;99.90
35541;DHT22;21650;48.840;9.162;2024-01-30T03:55:34;1.20;99.90
35541;DHT22;21650;48.840;9.162;2024-01-30T03:58:00;1.20;99.90
35541;DHT22;21650;48.840;9.162;2024-01-30T04:00:26;1.10;99.90
35541;DHT22;21650;48.840;9.162;2024-01-30T04:02:51;1.10;99.90
35541;DHT22;21650;48.840;9.162;2024-01-30T04:05:17;1.10;99.90
35541;DHT22;21650;48.840;9.162;2024-01-30T04:07:42;1.10;99.90
35541;DHT22;21650;48.840;9.162;2024-01-30T04:10:09;1.10;99.90
35541;DHT22;21650;48.840;9.162;2024-01-30T04:12:35;1.00;99.90
35541;DHT22;21650;48.840;9.162;2024-01-30T04:15:01;1.10;99.90
35541;DHT22;21650;48.840;9.162;2024-01-30T04:17:28;1.10;99.90
35541;DHT22;21650;48.840;9.162;2024-01-30T04:19:54;1.00;99.90
35541;DHT22;21650;48.840;9.162;2024-01-30T04:22:20;1.00;99.90
35541;DHT22;21650;48.840;9.162;2024-01-30T04:24:46;1.00;99.90
35541;DHT22;21650;48.840;9.162;2024-01-30T04:27:11;1.00;99.90
35541;DHT22;21650;48.840;9.162;2024-01-30T04:29:37;1.10;99.90
35541;DHT22;21650;48.840;9.162;2024-01-30T04:32:03;1.00;99.90
35541;DHT22;21650;48.840;9.162;2024-01-30T04:34:28;1.00;99.90
35541;DHT22;21650;48.840;9.162;2024-01-30T04:36:54;1.00;99.90
35541;DHT22;21650;48.840;9.162;2024-01-30T04:39:20;1.00;99.90
35541;DHT22;21650;48.840;9.162;2024-01-30T04:41:45;1.00;99.90
35541;DHT22;21650;48.840;9.162;2024-01-30T04:44:11;1.00;99.90
35541;DHT22;21650;48.840;9.162;2024-01-30T04:46:36;0.90;99.90
35541;DHT22;21650;48.840;9.162;2024-01-30T04:49:02;0.90;99.90
35541;DHT22;21650;48.840;9.162;2024-01-30T04:51:29;0.90;99.90
35541;DHT22;21650;48.840;9.162;2024-01-30T04:53:55;1.00;99.90
35541;DHT22;21650;48.840;9.162;2024-01-30T04:56:20;1.00;99.90
35541;DHT22;21650;48.840;9.162;2024-01-30T04:58:46;0.90;99.90
35541;DHT22;21650;48.840;9.162;2024-01-30T05:01:18;0.90;99.90
35541;DHT22;21650;48.840;9.162;2024-01-30T05:03:43;0.90;99.90
35541;DHT22;21650;48.840;9.162;2024-01-30T05:06:09;0.90;99.90
35541;DHT22;21650;48.840;9.162;2024-01-30T05:08:35;0.90;99.90
35541;DHT22;21650;48.840;9.162;2024-01-30T05:11:05;0.90;99.90
35541;DHT22;21650;48.840;9.162;2024-01-30T05:13:31;1.00;99.90
35541;DHT22;21650;48.840;9.162;2024-01-30T05:15:56;0.90;99.90
35541;DHT22;21650;48.840;9.162;2024-01-30T05:18:22;0.90;99.90
35541;DHT22;21650;48.840;9.162;2024-01-30T05:20:50;0.90;99.90
35541;DHT22;21650;48.840;9.162;2024-01-30T05:23:15;0.90;99.90
35541;DHT22;21650;48.840;9.162;2024-01-30T05:25:41;0.90;99.90
35541;DHT22;21650;48.840;9.162;2024-01-30T05:28:07;0.90;99.90
35541;DHT22;21650;48.840;9.162;2024-01-30T05:30:32;0.90;99.90
35541;DHT22;21650;48.840;9.162;2024-01-30T05:32:58;0.90;99.90
35541;DHT22;21650;48.840;9.162;2024-01-30T05:35:23;1.00;99.90
35541;DHT22;21650;48.840;9.162;2024-01-30T05:37:49;0.90;99.90
35541;DHT22;21650;48.840;9.162;2024-01-30T05:40:15;1.00;99.90
35541;DHT22;21650;48.840;9.162;2024-01-30T05:42:42;0.90;99.90
35541;DHT22;21650;48.840;9.162;2024-01-30T05:45:07;1.00;99.90
35541;DHT22;21650;48.840;9.162;2024-01-30T05:47:34;1.00;99.90
35541;DHT22;21650;48.840;9.162;2024-01-30T05:50:00;1.00;99.90
35541;DHT22;21650;48.840;9.162;2024-01-30T05:52:25;1.00;99.90
35541;DHT22;21650;48.840;9.162;2024-01-30T05:54:51;1.00;99.90
35541;DHT22;21650;48.840;9.162;2024-01-30T05:57:17;1.00;99.90
35541;DHT22;21650;48.840;9.162;2024-01-30T05:59:44;1.00;99.90
35541;DHT22;21650;48.840;9.162;2024-01-30T06:02:10;1.10;99.90
35541;DHT22;21650;48.840;9.162;2024-01-30T06:04:36;1.00;99.90
35541;DHT22;21650;48.840;9.162;2024-01-30T06:07:02;1.00;99.90
35541;DHT22;21650;48.840;9.162;2024-01-30T06:09:28;1.00;99.90
35541;DHT22;21650;48.840;9.162;2024-01-30T06:11:54;1.00;99.90
35541;DHT22;21650;48.840;9.162;2024-01-30T06:14:20;1.00;99.90
35541;DHT22;21650;48.840;9.162;2024-01-30T06:16:46;1.00;99.90
35541;DHT22;21650;48.840;9.162;2024-01-30T06:19:11;1.00;99.90
35541;DHT22;21650;48.840;9.162;2024-01-30T06:21:37;1.00;99.90
35541;DHT22;21650;48.840;9.162;2024-01-30T06:24:04;1.00;99.90
35541;DHT22;21650;48.840;9.162;2024-01-30T06:26:29;1.00;99.90
35541;DHT22;21650;48.840;9.162;2024-01-30T06:28:55;0.90;99.90
35541;DHT22;21650;48.840;9.162;2024-01-30T06:31:20;1.00;99.90
35541;DHT22;21650;48.840;9.162;2024-01-30T06:33:47;1.00;99.90
35541;DHT22;21650;48.840;9.162;2024-01-30T06:36:12;0.90;99.90
35541;DHT22;21650;48.840;9.162;2024-01-30T06:38:38;0.90;99.90
35541;DHT22;21650;48.840;9.162;2024-01-30T06:41:04;0.90;99.90
35541;DHT22;21650;48.840;9.162;2024-01-30T06:43:29;1.00;99.90
35541;DHT22;21650;48.840;9.162;2024-01-30T06:45:55;0.90;99.90
35541;DHT22;21650;48.840;9.162;2024-01-30T06:48:20;0.80;99.90
35541;DHT22;21650;48.840;9.162;2024-01-30T06:50:46;0.90;99.90
35541;DHT22;21650;48.840;9.162;2024-01-30T06:53:13;0.90;99.90
35541;DHT22;21650;48.840;9.162;2024-01-30T06:55:38;0.90;99.90
35541;DHT22;21650;48.840;9.162;2024-01-30T06:58:04;1.00;99.90
35541;DHT22;21650;48.840;9.162;2024-01-30T07:00:30;0.90;99.90
35541;DHT22;21650;48.840;9.162;2024-01-30T07:02:56;1.00;99.90
35541;DHT22;21650;48.840;9.162;2024-01-30T07:05:22;1.00;99.90
35541;DHT22;21650;48.840;9.162;2024-01-30T07:07:47;1.00;99.90
35541;DHT22;21650;48.840;9.162;2024-01-30T07:10:13;1.00;99.90
35541;DHT22;21650;48.840;9.162;2024-01-30T07:12:39;1.00;99.90
35541;DHT22;21650;48.840;9.162;2024-01-30T07:15:05;1.00;99.90
35541;DHT22;21650;48.840;9.162;2024-01-30T07:17:33;1.00;99.90
35541;DHT22;21650;48.840;9.162;2024-01-30T07:19:59;1.00;99.90
35541;DHT22;21650;48.840;9.162;2024-01-30T07:22:25;1.00;99.90
35541;DHT22;21650;48.840;9.162;2024-01-30T07:24:50;1.10;99.90
35541;DHT22;21650;48.840;9.162;2024-01-30T07:27:17;1.10;99.90
35541;DHT22;21650;48.840;9.162;2024-01-30T07:29:43;1.20;99.90
35541;DHT22;21650;48.840;9.162;2024-01-30T07:32:09;1.20;99.90
35541;DHT22;21650;48.840;9.162;2024-01-30T07:34:34;1.20;99.90
35541;DHT22;21650;48.840;9.162;2024-01-30T07:37:01;1.20;99.90
35541;DHT22;21650;48.840;9.162;2024-01-30T07:39:28;1.40;99.90
35541;DHT22;21650;48.840;9.162;2024-01-30T07:41:53;1.40;99.90
35541;DHT22;21650;48.840;9.162;2024-01-30T07:44:20;1.40;99.90
35541;DHT22;21650;48.840;9.162;2024-01-30T07:46:45;1.40;99.90
35541;DHT22;21650;48.840;9.162;2024-01-30T07:49:11;1.50;99.90
35541;DHT22;21650;48.840;9.162;2024-01-30T07:51:36;1.50;99.90
35541;DHT22;21650;48.840;9.162;2024-01-30T07:54:02;1.60;99.90
35541;DHT22;21650;48.840;9.162;2024-01-30T07:56:28;1.60;99.90
35541;DHT22;21650;48.840;9.162;2024-01-30T07:58:53;1.70;99.90
35541;DHT22;21650;48.840;9.162;2024-01-30T08:01:19;1.70;99.90
35541;DHT22;21650;48.840;9.162;2024-01-30T08:03:45;1.80;99.90
35541;DHT22;21650;48.840;9.162;2024-01-30T08:06:10;1.90;99.90
35541;DHT22;21650;48.840;9.162;2024-01-30T08:08:36;1.90;99.90
35541;DHT22;21650;48.840;9.162;2024-01-30T08:11:03;2.00;99.90
35541;DHT22;21650;48.840;9.162;2024-01-30T08:13:29;2.20;99.90
35541;DHT22;21650;48.840;9.162;2024-01-30T08:15:54;2.20;99.90
35541;DHT22;21650;48.840;9.162;2024-01-30T08:18:20;2.20;99.90
35541;DHT22;21650;48.840;9.162;2024-01-30T08:20:45;2.30;99.90
35541;DHT22;21650;48.840;9.162;2024-01-30T08:23:11;2.50;99.90
35541;DHT22;21650;48.840;9.162;2024-01-30T08:25:36;2.60;99.90
35541;DHT22;21650;48.840;9.162;2024-01-30T08:28:02;2.70;99.90
35541;DHT22;21650;48.840;9.162;2024-01-30T08:30:28;2.70;99.90
35541;DHT22;21650;48.840;9.162;2024-01-30T08:32:54;2.80;99.90
35541;DHT22;21650;48.840;9.162;2024-01-30T08:35:19;2.90;99.90
35541;DHT22;21650;48.840;9.162;2024-01-30T08:37:45;2.90;99.90
35541;DHT22;21650;48.840;9.162;2024-01-30T08:40:10;3.20;99.90
35541;DHT22;21650;48.840;9.162;2024-01-30T08:42:36;3.30;99.90
35541;DHT22;21650;48.840;9.162;2024-01-30T08:45:02;3.30;99.90
35541;DHT22;21650;48.840;9.162;2024-01-30T08:47:30;3.50;99.90
35541;DHT22;21650;48.840;9.162;2024-01-30T08:49:56;3.70;99.90
35541;DHT22;21650;48.840;9.162;2024-01-30T08:52:21;3.70;99.90
35541;DHT22;21650;48.840;9.162;2024-01-30T08:54:47;3.70;99.90
35541;DHT22;21650;48.840;9.162;2024-01-30T08:57:13;3.70;99.90
35541;DHT22;21650;48.840;9.162;2024-01-30T08:59:38;3.80;99.90
35541;DHT22;21650;48.840;9.162;2024-01-30T09:02:04;4.00;99.90
35541;DHT22;21650;48.840;9.162;2024-01-30T09:04:30;4.20;99.90
35541;DHT22;21650;48.840;9.162;2024-01-30T09:06:56;4.20;99.90
35541;DHT22;21650;48.840;9.162;2024-01-30T09:09:21;4.20;99.90
35541;DHT22;21650;48.840;9.162;2024-01-30T09:11:47;4.20;99.90
35541;DHT22;21650;48.840;9.162;2024-01-30T09:14:13;4.20;99.90
35541;DHT22;21650;48.840;9.162;2024-01-30T09:16:38;4.30;99.90
35541;DHT22;21650;48.840;9.162;2024-01-30T09:19:04;4.20;99.90
35541;DHT22;21650;48.840;9.162;2024-01-30T09:21:30;4.20;99.90
35541;DHT22;21650;48.840;9.162;2024-01-30T09:24:02;4.20;99.90
35541;DHT22;21650;48.840;9.162;2024-01-30T09:26:28;4.30;99.90
35541;DHT22;21650;48.840;9.162;2024-01-30T09:28:53;4.30;99.90
35541;DHT22;21650;48.840;9.162;2024-01-30T09:31:19;4.40;99.90
35541;DHT22;21650;48.840;9.162;2024-01-30T09:33:45;4.40;99.90
35541;DHT22;21650;48.840;9.162;2024-01-30T09:36:12;4.50;99.90
35541;DHT22;21650;48.840;9.162;2024-01-30T09:38:40;4.60;99.90
35541;DHT22;21650;48.840;9.162;2024-01-30T09:41:09;4.80;99.90
35541;DHT22;21650;48.840;9.162;2024-01-30T09:43:38;4.90;99.90
35541;DHT22;21650;48.840;9.162;2024-01-30T09:46:10;5.00;99.90
35541;DHT22;21650;48.840;9.162;2024-01-30T09:48:37;5.10;99.90
35541;DHT22;21650;48.840;9.162;2024-01-30T09:51:03;5.20;99.90
35541;DHT22;21650;48.840;9.162;2024-01-30T09:53:29;5.40;99.90
35541;DHT22;21650;48.840;9.162;2024-01-30T09:55:54;5.40;99.90
35541;DHT22;21650;48.840;9.162;2024-01-30T09:58:20;5.40;99.90
35541;DHT22;21650;48.840;9.162;2024-01-30T10:00:47;5.50;99.90
35541;DHT22;21650;48.840;9.162;2024-01-30T10:03:12;5.60;99.90
35541;DHT22;21650;48.840;9.162;2024-01-30T10:05:40;5.90;99.90
35541;DHT22;21650;48.840;9.162;2024-01-30T10:08:07;5.80;99.90
35541;DHT22;21650;48.840;9.162;2024-01-30T10:10:34;5.90;99.90
35541;DHT22;21650;48.840;9.162;2024-01-30T10:13:00;6.00;99.90
35541;DHT22;21650;48.840;9.162;2024-01-30T10:15:28;6.00;99.90
35541;DHT22;21650;48.840;9.162;2024-01-30T10:17:53;6.20;99.90
35541;DHT22;21650;48.840;9.162;2024-01-30T10:20:19;6.20;99.90
35541;DHT22;21650;48.840;9.162;2024-01-30T10:22:47;6.10;99.90
35541;DHT22;21650;48.840;9.162;2024-01-30T10:25:13;6.20;99.90
35541;DHT22;21650;48.840;9.162;2024-01-30T10:27:42;6.20;99.90
35541;DHT22;21650;48.840;9.162;2024-01-30T10:30:08;6.30;99.90
35541;DHT22;21650;48.840;9.162;2024-01-30T10:32:34;6.50;99.90
35541;DHT22;21650;48.840;9.162;2024-01-30T10:35:00;6.50;99.90
35541;DHT22;21650;48.840;9.162;2024-01-30T10:37:26;6.50;99.90
35541;DHT22;21650;48.840;9.162;2024-01-30T10:39:53;6.50;99.90
35541;DHT22;21650;48.840;9.162;2024-01-30T10:42:25;6.60;99.90
35541;DHT22;21650;48.840;9.162;2024-01-30T10:45:11;6.80;99.90
35541;DHT22;21650;48.840;9.162;2024-01-30T10:47:43;6.80;99.90
35541;DHT22;21650;48.840;9.162;2024-01-30T10:50:09;7.00;99.90
35541;DHT22;21650;48.840;9.162;2024-01-30T10:52:36;7.00;99.90
35541;DHT22;21650;48.840;9.162;2024-01-30T10:55:04;7.00;99.90
35541;DHT22;21650;48.840;9.162;2024-01-30T10:57:34;7.20;99.90
35541;DHT22;21650;48.840;9.162;2024-01-30T11:00:02;7.30;99.90
35541;DHT22;21650;48.840;9.162;2024-01-30T11:02:32;7.40;99.90
35541;DHT22;21650;48.840;9.162;2024-01-30T11:04:58;7.40;99.90
35541;DHT22;21650;48.840;9.162;2024-01-30T11:07:27;7.40;99.90
35541;DHT22;21650;48.840;9.162;2024-01-30T11:09:59;7.50;99.90
35541;DHT22;21650;48.840;9.162;2024-01-30T11:12:32;7.60;99.90
35541;DHT22;21650;48.840;9.162;2024-01-30T11:15:12;7.70;99.90
35541;DHT22;21650;48.840;9.162;2024-01-30T11:17:49;7.60;99.90
35541;DHT22;21650;48.840;9.162;2024-01-30T11:20:16;7.70;99.90
35541;DHT22;21650;48.840;9.162;2024-01-30T11:22:44;7.70;99.90
35541;DHT22;21650;48.840;9.162;2024-01-30T11:25:14;7.70;99.90
35541;DHT22;21650;48.840;9.162;2024-01-30T11:27:41;7.80;99.90
35541;DHT22;21650;48.840;9.162;2024-01-30T11:30:07;7.80;99.90
35541;DHT22;21650;48.840;9.162;2024-01-30T11:32:33;7.90;99.90
35541;DHT22;21650;48.840;9.162;2024-01-30T11:34:59;8.00;99.90
35541;DHT22;21650;48.840;9.162;2024-01-30T11:37:28;8.10;99.90
35541;DHT22;21650;48.840;9.162;2024-01-30T11:39:54;8.10;99.90
35541;DHT22;21650;48.840;9.162;2024-01-30T11:42:23;8.30;99.90
35541;DHT22;21650;48.840;9.162;2024-01-30T11:44:50;8.20;99.90
35541;DHT22;21650;48.840;9.162;2024-01-30T11:47:16;8.30;99.90
35541;DHT22;21650;48.840;9.162;2024-01-30T11:49:43;8.30;99.90
35541;DHT22;21650;48.840;9.162;2024-01-30T11:52:09;8.20;99.90
35541;DHT22;21650;48.840;9.162;2024-01-30T11:54:35;8.20;99.90
35541;DHT22;21650;48.840;9.162;2024-01-30T11:57:00;8.40;99.90
35541;DHT22;21650;48.840;9.162;2024-01-30T11:59:26;8.50;99.90
35541;DHT22;21650;48.840;9.162;2024-01-30T12:01:52;8.60;99.90
35541;DHT22;21650;48.840;9.162;2024-01-30T12:04:18;8.50;99.90
35541;DHT22;21650;48.840;9.162;2024-01-30T12:06:43;8.60;99.90
35541;DHT22;21650;48.840;9.162;2024-01-30T12:09:09;8.60;99.90
35541;DHT22;21650;48.840;9.162;2024-01-30T12:11:44;8.80;99.90
35541;DHT22;21650;48.840;9.162;2024-01-30T12:14:10;8.80;99.90
35541;DHT22;21650;48.840;9.162;2024-01-30T12:16:37;8.90;99.90
35541;DHT22;21650;48.840;9.162;2024-01-30T12:19:02;8.90;99.90
35541;DHT22;21650;48.840;9.162;2024-01-30T12:21:29;8.90;99.90
35541;DHT22;21650;48.840;9.162;2024-01-30T12:23:56;8.90;99.90
35541;DHT22;21650;48.840;9.162;2024-01-30T12:26:24;8.90;99.90
35541;DHT22;21650;48.840;9.162;2024-01-30T12:28:53;9.00;99.90
35541;DHT22;21650;48.840;9.162;2024-01-30T12:31:26;9.10;99.90
35541;DHT22;21650;48.840;9.162;2024-01-30T12:33:53;9.20;99.90
35541;DHT22;21650;48.840;9.162;2024-01-30T12:36:19;9.30;99.90
35541;DHT22;21650;48.840;9.162;2024-01-30T12:38:44;9.40;99.90
35541;DHT22;21650;48.840;9.162;2024-01-30T12:41:10;9.40;99.90
35541;DHT22;21650;48.840;9.162;2024-01-30T12:43:36;9.50;99.90
35541;DHT22;21650;48.840;9.162;2024-01-30T12:46:03;9.40;99.90
35541;DHT22;21650;48.840;9.162;2024-01-30T12:48:28;9.50;99.90
35541;DHT22;21650;48.840;9.162;2024-01-30T12:50:55;9.50;99.90
35541;DHT22;21650;48.840;9.162;2024-01-30T12:53:21;9.60;99.90
35541;DHT22;21650;48.840;9.162;2024-01-30T12:55:47;9.60;99.90
35541;DHT22;21650;48.840;9.162;2024-01-30T12:58:13;9.60;99.90
35541;DHT22;21650;48.840;9.162;2024-01-30T13:00:38;9.80;99.90
35541;DHT22;21650;48.840;9.162;2024-01-30T13:03:04;9.90;99.90
35541;DHT22;21650;48.840;9.162;2024-01-30T13:05:30;10.00;99.90
35541;DHT22;21650;48.840;9.162;2024-01-30T13:07:55;10.00;99.90
35541;DHT22;21650;48.840;9.162;2024-01-30T13:10:23;10.10;99.90
35541;DHT22;21650;48.840;9.162;2024-01-30T13:12:48;10.20;99.90
35541;DHT22;21650;48.840;9.162;2024-01-30T13:15:14;10.20;99.90
35541;DHT22;21650;48.840;9.162;2024-01-30T13:17:40;10.30;99.90
35541;DHT22;21650;48.840;9.162;2024-01-30T13:20:08;10.30;99.90
35541;DHT22;21650;48.840;9.162;2024-01-30T13:22:34;10.50;99.90
35541;DHT22;21650;48.840;9.162;2024-01-30T13:24:59;10.60;99.90
35541;DHT22;21650;48.840;9.162;2024-01-30T13:27:25;10.60;99.90
35541;DHT22;21650;48.840;9.162;2024-01-30T13:29:51;10.60;99.90
35541;DHT22;21650;48.840;9.162;2024-01-30T13:32:16;10.60;99.90
35541;DHT22;21650;48.840;9.162;2024-01-30T13:34:42;10.70;99.90
35541;DHT22;21650;48.840;9.162;2024-01-30T13:37:08;10.70;99.90
35541;DHT22;21650;48.840;9.162;2024-01-30T13:39:34;10.60;99.90
35541;DHT22;21650;48.840;9.162;2024-01-30T13:41:59;10.50;99.90
35541;DHT22;21650;48.840;9.162;2024-01-30T13:44:25;10.50;99.90
35541;DHT22;21650;48.840;9.162;2024-01-30T13:46:51;10.50;99.90
35541;DHT22;21650;48.840;9.162;2024-01-30T13:49:16;10.50;99.90
35541;DHT22;21650;48.840;9.162;2024-01-30T13:51:42;10.50;99.90
35541;DHT22;21650;48.840;9.162;2024-01-30T13:54:07;10.50;99.90
35541;DHT22;21650;48.840;9.162;2024-01-30T13:56:33;10.50;99.90
35541;DHT22;21650;48.840;9.162;2024-01-30T13:58:59;10.50;99.90
35541;DHT22;21650;48.840;9.162;2024-01-30T14:01:26;10.40;99.90
35541;DHT22;21650;48.840;9.162;2024-01-30T14:03:52;10.30;99.90
35541;DHT22;21650;48.840;9.162;2024-01-30T14:06:18;10.30;99.90
35541;DHT22;21650;48.840;9.162;2024-01-30T14:08:44;10.20;99.90
35541;DHT22;21650;48.840;9.162;2024-01-30T14:11:10;10.30;99.90
35541;DHT22;21650;48.840;9.162;2024-01-30T14:13:35;10.30;99.90
35541;DHT22;21650;48.840;9.162;2024-01-30T14:16:01;10.30;99.90
35541;DHT22;21650;48.840;9.162;2024-01-30T14:18:27;10.40;99.90
35541;DHT22;21650;48.840;9.162;2024-01-30T14:20:52;10.50;99.90
35541;DHT22;21650;48.840;9.162;2024-01-30T14:23:19;10.40;99.90
35541;DHT22;21650;48.840;9.162;2024-01-30T14:25:45;10.30;99.90
35541;DHT22;21650;48.840;9.162;2024-01-30T14:28:10;10.30;99.90
35541;DHT22;21650;48.840;9.162;2024-01-30T14:30:36;10.20;99.90
35541;DHT22;21650;48.840;9.162;2024-01-30T14:33:02;10.20;99.90
35541;DHT22;21650;48.840;9.162;2024-01-30T14:35:27;10.20;99.90
35541;DHT22;21650;48.840;9.162;2024-01-30T14:37:53;10.20;99.90
35541;DHT22;21650;48.840;9.162;2024-01-30T14:40:19;10.20;99.90
35541;DHT22;21650;48.840;9.162;2024-01-30T14:42:45;10.20;99.90
35541;DHT22;21650;48.840;9.162;2024-01-30T14:45:11;10.20;99.90
35541;DHT22;21650;48.840;9.162;2024-01-30T14:47:37;10.10;99.90
35541;DHT22;21650;48.840;9.162;2024-01-30T14:50:03;10.10;99.90
35541;DHT22;21650;48.840;9.162;2024-01-30T14:52:29;10.10;99.90
35541;DHT22;21650;48.840;9.162;2024-01-30T14:54:55;10.00;99.90
35541;DHT22;21650;48.840;9.162;2024-01-30T14:57:20;10.00;99.90
35541;DHT22;21650;48.840;9.162;2024-01-30T14:59:46;9.90;99.90
35541;DHT22;21650;48.840;9.162;2024-01-30T15:02:13;9.80;99.90
35541;DHT22;21650;48.840;9.162;2024-01-30T15:04:40;9.80;99.90
35541;DHT22;21650;48.840;9.162;2024-01-30T15:07:05;9.70;99.90
35541;DHT22;21650;48.840;9.162;2024-01-30T15:09:31;9.60;99.90
35541;DHT22;21650;48.840;9.162;2024-01-30T15:11:57;9.60;99.90
35541;DHT22;21650;48.840;9.162;2024-01-30T15:14:23;9.50;99.90
35541;DHT22;21650;48.840;9.162;2024-01-30T15:16:49;9.50;99.90
35541;DHT22;21650;48.840;9.162;2024-01-30T15:19:15;9.40;99.90
35541;DHT22;21650;48.840;9.162;2024-01-30T15:21:41;9.30;99.90
35541;DHT22;21650;48.840;9.162;2024-01-30T15:24:06;9.30;99.90
35541;DHT22;21650;48.840;9.162;2024-01-30T15:26:32;9.60;99.90
35541;DHT22;21650;48.840;9.162;2024-01-30T15:28:57;9.50;99.90
35541;DHT22;21650;48.840;9.162;2024-01-30T15:31:23;9.40;99.90
35541;DHT22;21650;48.840;9.162;2024-01-30T15:33:49;9.30;99.90
35541;DHT22;21650;48.840;9.162;2024-01-30T15:36:14;9.20;99.90
35541;DHT22;21650;48.840;9.162;2024-01-30T15:38:41;9.10;99.90